Ringgold, Texas
Current Conditions -  °F | °C
As of 4:15 PM on Saturday 20 Dec 2014 (Local Time) from K0F2 Reporting Station
Overcast Overcast  
Wind Chill: 43°   Ceiling: 1500
Heat Index: 43°   Visibility: 7mi
Dew Point: 42°   Wind: 3mph
Humidity: 95%   Direction: 130°SE
Pressure: 30.16"   Gusts: NA
Location:  33.82°N, 97.94°W
Report Text: K0F2 202215Z AUTO 13003KT 7SM SCT008 OVC015 06/06 A3016 RMK AO2 T00630055
Loading
Personal Weather Stations






























Interactive Weather Map New forecast layout! Learn more

10-Day Weather Forecast

Advertisements
Track Severe Weather on mobile